Sam Hawk — D5IJ9 — position and weather

sailwx.info

Track history (hours):
 
Tides and Currents Weather Stations Pressure Air Temp Water Temp Dewpoint Dewpoint Depression Visibility Wind Speed Wind Dir Waves Ship Positions

Sam Hawk

Last reported at 2017-Sep-04 18:04 UTC. Time now 2017-Sep-24 17:50 UTC.
Position N 38°02' W 013°19'.
Warning: this ship's position is 19 days out of date.

Length 190 m; draft 10.7 m.

Type: Cargo ship. MMSI: 636016919.

Date/timePositionNaut miles runAvg speedWind from/ knotsBaromVisibWave heightAir tempDewpointWater temp
2017-Sep-04 18:04N 38°02' W 013°19'511.7
2017-Sep-04 17:38N 37°60' W 013°13'111.8
2017-Sep-04 17:30N 37°59' W 013°11'12611.7
2017-Sep-04 06:40N 37°02' W 010°49'411.9
2017-Sep-04 06:19N 37°00' W 010°45'1611.7
2017-Sep-04 04:56N 36°53' W 010°26'811.8
2017-Sep-04 04:18N 36°50' W 010°18'511.9
2017-Sep-04 03:53N 36°47' W 010°13'411.7
2017-Sep-04 03:30N 36°45' W 010°08'711.6
2017-Sep-04 02:53N 36°42' W 009°60'511.4
2017-Sep-04 02:29N 36°40' W 009°55'511.3
2017-Sep-04 02:00N 36°37' W 009°49'611.6
2017-Sep-04 01:30N 36°34' W 009°43'611.6
2017-Sep-04 00:58N 36°31' W 009°36'711.5
2017-Sep-04 00:20N 36°27' W 009°28'511.4
2017-Sep-03 23:54N 36°25' W 009°23'511.3
2017-Sep-03 23:27N 36°22' W 009°18'511.3
2017-Sep-03 23:00N 36°19' W 009°12'611.5
2017-Sep-03 22:30N 36°17' W 009°06'611.6
2017-Sep-03 22:00N 36°14' W 008°60'611.5
2017-Sep-03 21:30N 36°13' W 008°53'611.6
2017-Sep-03 21:00N 36°12' W 008°46'611.2
2017-Sep-03 20:30N 36°11' W 008°39'611.1
2017-Sep-03 20:00N 36°10' W 008°32'611.0
2017-Sep-03 19:30N 36°09' W 008°25'611.2
2017-Sep-03 19:00N 36°08' W 008°18'611.3
2017-Sep-03 18:30N 36°07' W 008°11'611.2
2017-Sep-03 17:56N 36°06' W 008°04'511.6
2017-Sep-03 17:30N 36°06' W 007°58'611.7
2017-Sep-03 17:00N 36°05' W 007°50'611.9
2017-Sep-03 16:30N 36°04' W 007°43'612.4
2017-Sep-03 16:00N 36°03' W 007°36'612.8
2017-Sep-03 15:30N 36°02' W 007°28'612.7
2017-Sep-03 15:00N 36°01' W 007°20'8512.5
2017-Sep-03 08:13N 35°58' W 005°36'311.8
2017-Sep-03 07:57N 35°58' W 005°32'511.9
2017-Sep-03 07:30N 36°01' W 005°26'612.2
2017-Sep-03 07:00N 36°02' W 005°18'612.7
2017-Sep-03 06:30N 36°03' W 005°11'  
2017-Aug-31 20:48N 37°39' E 009°24'3611.8
2017-Aug-31 17:45N 37°39' E 010°10'312.1
2017-Aug-31 17:30N 37°38' E 010°14'612.3
2017-Aug-31 17:00N 37°37' E 010°22'612.4
2017-Aug-31 16:30N 37°36' E 010°29'612.5
2017-Aug-31 16:00N 37°35' E 010°37'612.6
2017-Aug-31 15:30N 37°33' E 010°45'11212.5
2017-Aug-31 06:33N 36°44' E 012°51'112.2
2017-Aug-31 06:28N 36°43' E 012°52'612.1
2017-Aug-31 06:00N 36°41' E 012°58'612.2
2017-Aug-31 05:29N 36°38' E 013°05'612.4
2017-Aug-31 05:00N 36°35' E 013°12'612.6
2017-Aug-31 04:30N 36°33' E 013°19'612.6
2017-Aug-31 04:00N 36°30' E 013°26'612.6
2017-Aug-31 03:30N 36°27' E 013°33'612.6
2017-Aug-31 03:00N 36°24' E 013°40'612.6
2017-Aug-31 02:30N 36°22' E 013°47'612.6
2017-Aug-31 02:00N 36°19' E 013°54'612.6
2017-Aug-31 01:30N 36°16' E 014°01'612.6
2017-Aug-31 01:00N 36°13' E 014°08'612.6
2017-Aug-31 00:30N 36°10' E 014°15'612.6
2017-Aug-31 00:00N 36°07' E 014°21'612.5
2017-Aug-30 23:30N 36°03' E 014°28'612.5
2017-Aug-30 23:00N 35°59' E 014°34'612.4
2017-Aug-30 22:30N 35°55' E 014°40'510.5
2017-Aug-30 22:00N 35°53' E 014°45'0 0.5
2017-Aug-30 21:28N 35°53' E 014°46'0 0.1
2017-Aug-30 20:58N 35°53' E 014°46'0 0.1
2017-Aug-30 20:28N 35°53' E 014°46'0 0.2
2017-Aug-30 19:58N 35°53' E 014°46'0 0.3
2017-Aug-30 19:28N 35°53' E 014°46'0 0.6
2017-Aug-30 18:46N 35°53' E 014°46'0 0.2
2017-Aug-30 18:25N 35°53' E 014°46'1 0.7
2017-Aug-30 17:40N 35°53' E 014°47'0 0.2
2017-Aug-30 15:49N 35°53' E 014°46'0 0.0
2017-Aug-30 15:25N 35°53' E 014°46'0 0.0
2017-Aug-30 14:46N 35°53' E 014°46'0 0.0
2017-Aug-30 14:22N 35°53' E 014°46'0 0.0
2017-Aug-30 13:58N 35°53' E 014°46'0 0.0
2017-Aug-30 11:01N 35°53' E 014°46'0 0.0
2017-Aug-30 09:16N 35°53' E 014°46'0 0.0
2017-Aug-30 08:58N 35°53' E 014°46'0 0.0
2017-Aug-30 08:28N 35°53' E 014°46'0 0.0
2017-Aug-30 07:58N 35°53' E 014°46'0 0.0
2017-Aug-30 07:25N 35°53' E 014°46'0 0.0
2017-Aug-30 06:58N 35°53' E 014°46'0 0.0
2017-Aug-30 06:16N 35°53' E 014°46'0 0.0
2017-Aug-30 05:58N 35°53' E 014°46'0 0.0
2017-Aug-30 05:28N 35°53' E 014°46'0 0.0
2017-Aug-30 04:58N 35°53' E 014°46'0 0.0
2017-Aug-30 04:28N 35°53' E 014°46'0 0.0
2017-Aug-30 03:55N 35°53' E 014°46'0 0.0
2017-Aug-30 03:28N 35°53' E 014°46'0 0.0
2017-Aug-30 02:58N 35°53' E 014°46'0 0.0
2017-Aug-30 02:28N 35°53' E 014°46'1 1.1
2017-Aug-30 02:00N 35°53' E 014°47'4 8.8
2017-Aug-30 01:30N 35°53' E 014°52'612.7
2017-Aug-30 01:00N 35°57' E 014°58'611.9
2017-Aug-30 00:30N 35°60' E 015°05'612.7
2017-Aug-30 00:00N 36°01' E 015°13'612.2
2017-Aug-29 23:30N 35°57' E 015°19'612.4
2017-Aug-29 23:00N 35°54' E 015°26'612.1
2017-Aug-29 22:30N 35°58' E 015°32'612.3
2017-Aug-29 22:00N 36°01' E 015°38'611.6
2017-Aug-29 21:30N 36°00' E 015°45'711.8
2017-Aug-29 20:55N 35°58' E 015°53'3110.1
2017-Aug-29 17:51N 36°02' E 016°31'412.6
2017-Aug-29 17:30N 36°02' E 016°36'612.6
2017-Aug-29 17:00N 36°02' E 016°44'1712.6
2017-Aug-29 15:40N 36°03' E 017°05'1612.5
2017-Aug-29 14:22N 36°04' E 017°25'5612.6
2017-Aug-29 09:56N 36°08' E 018°34'13212.3
2017-Aug-28 23:14N 36°17' E 021°17'13910.5
2017-Aug-28 09:59N 37°30' E 023°45'612.8
2017-Aug-28 09:30N 37°36' E 023°44'612.6
2017-Aug-28 09:00N 37°42' E 023°41'612.7
2017-Aug-28 08:30N 37°48' E 023°38'612.0
2017-Aug-28 07:59N 37°54' E 023°37'4 8.9
2017-Aug-28 07:30N 37°57' E 023°34'5 9.7
2017-Aug-28 07:00N 38°02' E 023°32'1 1.0
2017-Aug-28 06:29N 38°02' E 023°32'0 0.0
2017-Aug-28 05:59N 38°02' E 023°32'0 0.0
2017-Aug-28 05:29N 38°02' E 023°32'0 0.0
2017-Aug-28 04:59N 38°02' E 023°32'0 0.0
2017-Aug-28 04:29N 38°02' E 023°32'0 0.0
2017-Aug-28 03:59N 38°02' E 023°32'0 0.0
2017-Aug-28 03:29N 38°03' E 023°32'0 0.0
2017-Aug-28 02:59N 38°02' E 023°32'0 0.0
2017-Aug-28 02:29N 38°02' E 023°32'0 0.0
2017-Aug-28 01:58N 38°02' E 023°32'0 0.0
2017-Aug-28 01:29N 38°02' E 023°32'0 0.0
2017-Aug-27 05:04N 38°02' E 023°32'0 0.0
2017-Aug-27 04:58N 38°02' E 023°32'0 0.0
2017-Aug-27 04:28N 38°02' E 023°32'0 0.0
2017-Aug-27 03:58N 38°02' E 023°32'0 0.0
2017-Aug-27 03:28N 38°02' E 023°32'0 0.0
2017-Aug-27 02:58N 38°02' E 023°32'0 0.0
2017-Aug-27 02:28N 38°02' E 023°32'0 0.0
2017-Aug-27 01:58N 38°02' E 023°32'0 0.0
2017-Aug-27 01:28N 38°02' E 023°32'0 0.0
2017-Aug-27 00:58N 38°02' E 023°32'0 0.0
2017-Aug-27 00:28N 38°02' E 023°32'0 0.0
2017-Aug-26 23:58N 38°02' E 023°32'0 0.0
2017-Aug-26 23:28N 38°02' E 023°32'0 0.0
2017-Aug-26 22:58N 38°02' E 023°32'0 0.0
2017-Aug-26 22:28N 38°02' E 023°32'0 0.0
2017-Aug-26 21:58N 38°02' E 023°32'0 0.0
2017-Aug-26 21:28N 38°02' E 023°32'0 0.0
2017-Aug-26 20:58N 38°02' E 023°32'0 0.0
2017-Aug-26 20:28N 38°02' E 023°32'0 0.0
2017-Aug-26 19:58N 38°02' E 023°32'0 0.0
2017-Aug-26 19:28N 38°02' E 023°32'0 0.0
2017-Aug-26 18:58N 38°03' E 023°32'0 0.0
2017-Aug-26 18:28N 38°02' E 023°32'0 0.0
2017-Aug-26 17:58N 38°02' E 023°32'0 0.0
2017-Aug-26 17:28N 38°02' E 023°32'0 0.0
2017-Aug-26 16:58N 38°02' E 023°32'0 0.0
2017-Aug-26 16:28N 38°02' E 023°32'0 0.0
2017-Aug-26 15:58N 38°02' E 023°32'0 0.0
2017-Aug-26 15:28N 38°02' E 023°32'0 0.0
2017-Aug-26 14:58N 38°02' E 023°32'0 0.0
2017-Aug-26 13:58N 38°02' E 023°32'0 0.0
2017-Aug-26 10:07N 38°02' E 023°32'0 0.0
2017-Aug-26 09:58N 38°02' E 023°32'0 0.0
2017-Aug-26 09:28N 38°02' E 023°32'0 0.0
2017-Aug-26 08:58N 38°02' E 023°32'0 0.0
2017-Aug-26 08:28N 38°02' E 023°32'0 0.0
2017-Aug-26 07:58N 38°02' E 023°32'0 0.0
2017-Aug-26 07:28N 38°02' E 023°32'0 0.0
2017-Aug-26 06:58N 38°02' E 023°32'0 0.0
2017-Aug-26 06:28N 38°02' E 023°32'0 0.0
2017-Aug-26 05:58N 38°02' E 023°32'0 0.0
2017-Aug-26 05:28N 38°02' E 023°32'0 0.0
2017-Aug-26 04:58N 38°02' E 023°32'0 0.0
2017-Aug-26 04:28N 38°02' E 023°32'0 0.0
2017-Aug-26 03:58N 38°02' E 023°32'0 0.0
2017-Aug-26 03:28N 38°02' E 023°32'0 0.0
2017-Aug-26 02:58N 38°02' E 023°32'0 0.0
2017-Aug-26 02:28N 38°02' E 023°32'0 0.0
2017-Aug-26 01:58N 38°02' E 023°32'0 0.0
2017-Aug-26 01:28N 38°02' E 023°32'0 0.0
2017-Aug-26 00:58N 38°02' E 023°32'0 0.0
2017-Aug-26 00:28N 38°02' E 023°32'0 0.0
2017-Aug-25 23:58N 38°02' E 023°32'0 0.0
2017-Aug-25 23:28N 38°02' E 023°32'0 0.0
2017-Aug-25 22:58N 38°02' E 023°32'0 0.0
2017-Aug-25 22:28N 38°02' E 023°32'0 0.0
2017-Aug-25 21:58N 38°02' E 023°32'0 0.0
2017-Aug-25 21:28N 38°02' E 023°32'0 0.0
2017-Aug-25 20:58N 38°02' E 023°32'0 0.0
2017-Aug-25 20:28N 38°02' E 023°32'0 0.0
2017-Aug-25 19:58N 38°02' E 023°32'0 0.0
2017-Aug-25 19:28N 38°02' E 023°32'0 0.0
2017-Aug-25 18:58N 38°02' E 023°32'0 0.0
2017-Aug-25 18:28N 38°02' E 023°32'  
Track history (hours):
 
Tides and Currents Weather Stations Pressure Air Temp Water Temp Dewpoint Dewpoint Depression Visibility Wind Speed Wind Dir Waves Ship Positions

Sam Hawk

Last reported at 2017-Sep-04 18:04 UTC. Time now 2017-Sep-24 17:50 UTC.
Position N 38°02' W 013°19'.
Warning: this ship's position is 19 days out of date.

Length 190 m; draft 10.7 m.

Type: Cargo ship. MMSI: 636016919.

Date/timePositionNaut miles runAvg speedWind from/ knotsBaromVisibWave heightAir tempDewpointWater temp
2017-Sep-04 18:04N 38°02' W 013°19'511.7
2017-Sep-04 17:38N 37°60' W 013°13'111.8
2017-Sep-04 17:30N 37°59' W 013°11'12611.7
2017-Sep-04 06:40N 37°02' W 010°49'411.9
2017-Sep-04 06:19N 37°00' W 010°45'1611.7
2017-Sep-04 04:56N 36°53' W 010°26'811.8
2017-Sep-04 04:18N 36°50' W 010°18'511.9
2017-Sep-04 03:53N 36°47' W 010°13'411.7
2017-Sep-04 03:30N 36°45' W 010°08'711.6
2017-Sep-04 02:53N 36°42' W 009°60'511.4
2017-Sep-04 02:29N 36°40' W 009°55'511.3
2017-Sep-04 02:00N 36°37' W 009°49'611.6
2017-Sep-04 01:30N 36°34' W 009°43'611.6
2017-Sep-04 00:58N 36°31' W 009°36'711.5
2017-Sep-04 00:20N 36°27' W 009°28'511.4
2017-Sep-03 23:54N 36°25' W 009°23'511.3
2017-Sep-03 23:27N 36°22' W 009°18'511.3
2017-Sep-03 23:00N 36°19' W 009°12'611.5
2017-Sep-03 22:30N 36°17' W 009°06'611.6
2017-Sep-03 22:00N 36°14' W 008°60'611.5
2017-Sep-03 21:30N 36°13' W 008°53'611.6
2017-Sep-03 21:00N 36°12' W 008°46'611.2
2017-Sep-03 20:30N 36°11' W 008°39'611.1
2017-Sep-03 20:00N 36°10' W 008°32'611.0
2017-Sep-03 19:30N 36°09' W 008°25'611.2
2017-Sep-03 19:00N 36°08' W 008°18'611.3
2017-Sep-03 18:30N 36°07' W 008°11'611.2
2017-Sep-03 17:56N 36°06' W 008°04'511.6
2017-Sep-03 17:30N 36°06' W 007°58'611.7
2017-Sep-03 17:00N 36°05' W 007°50'611.9
2017-Sep-03 16:30N 36°04' W 007°43'612.4
2017-Sep-03 16:00N 36°03' W 007°36'612.8
2017-Sep-03 15:30N 36°02' W 007°28'612.7
2017-Sep-03 15:00N 36°01' W 007°20'8512.5
2017-Sep-03 08:13N 35°58' W 005°36'311.8
2017-Sep-03 07:57N 35°58' W 005°32'511.9
2017-Sep-03 07:30N 36°01' W 005°26'612.2
2017-Sep-03 07:00N 36°02' W 005°18'612.7
2017-Sep-03 06:30N 36°03' W 005°11'  
2017-Aug-31 20:48N 37°39' E 009°24'3611.8
2017-Aug-31 17:45N 37°39' E 010°10'312.1
2017-Aug-31 17:30N 37°38' E 010°14'612.3
2017-Aug-31 17:00N 37°37' E 010°22'612.4
2017-Aug-31 16:30N 37°36' E 010°29'612.5
2017-Aug-31 16:00N 37°35' E 010°37'612.6
2017-Aug-31 15:30N 37°33' E 010°45'11212.5
2017-Aug-31 06:33N 36°44' E 012°51'112.2
2017-Aug-31 06:28N 36°43' E 012°52'612.1
2017-Aug-31 06:00N 36°41' E 012°58'612.2
2017-Aug-31 05:29N 36°38' E 013°05'612.4
2017-Aug-31 05:00N 36°35' E 013°12'612.6
2017-Aug-31 04:30N 36°33' E 013°19'612.6
2017-Aug-31 04:00N 36°30' E 013°26'612.6
2017-Aug-31 03:30N 36°27' E 013°33'612.6
2017-Aug-31 03:00N 36°24' E 013°40'612.6
2017-Aug-31 02:30N 36°22' E 013°47'612.6
2017-Aug-31 02:00N 36°19' E 013°54'612.6
2017-Aug-31 01:30N 36°16' E 014°01'612.6
2017-Aug-31 01:00N 36°13' E 014°08'612.6
2017-Aug-31 00:30N 36°10' E 014°15'612.6
2017-Aug-31 00:00N 36°07' E 014°21'612.5
2017-Aug-30 23:30N 36°03' E 014°28'612.5
2017-Aug-30 23:00N 35°59' E 014°34'612.4
2017-Aug-30 22:30N 35°55' E 014°40'510.5
2017-Aug-30 22:00N 35°53' E 014°45'0 0.5
2017-Aug-30 21:28N 35°53' E 014°46'0 0.1
2017-Aug-30 20:58N 35°53' E 014°46'0 0.1
2017-Aug-30 20:28N 35°53' E 014°46'0 0.2
2017-Aug-30 19:58N 35°53' E 014°46'0 0.3
2017-Aug-30 19:28N 35°53' E 014°46'0 0.6
2017-Aug-30 18:46N 35°53' E 014°46'0 0.2
2017-Aug-30 18:25N 35°53' E 014°46'1 0.7
2017-Aug-30 17:40N 35°53' E 014°47'0 0.2
2017-Aug-30 15:49N 35°53' E 014°46'0 0.0
2017-Aug-30 15:25N 35°53' E 014°46'0 0.0
2017-Aug-30 14:46N 35°53' E 014°46'0 0.0
2017-Aug-30 14:22N 35°53' E 014°46'0 0.0
2017-Aug-30 13:58N 35°53' E 014°46'0 0.0
2017-Aug-30 11:01N 35°53' E 014°46'0 0.0
2017-Aug-30 09:16N 35°53' E 014°46'0 0.0
2017-Aug-30 08:58N 35°53' E 014°46'0 0.0
2017-Aug-30 08:28N 35°53' E 014°46'0 0.0
2017-Aug-30 07:58N 35°53' E 014°46'0 0.0
2017-Aug-30 07:25N 35°53' E 014°46'0 0.0
2017-Aug-30 06:58N 35°53' E 014°46'0 0.0
2017-Aug-30 06:16N 35°53' E 014°46'0 0.0
2017-Aug-30 05:58N 35°53' E 014°46'0 0.0
2017-Aug-30 05:28N 35°53' E 014°46'0 0.0
2017-Aug-30 04:58N 35°53' E 014°46'0 0.0
2017-Aug-30 04:28N 35°53' E 014°46'0 0.0
2017-Aug-30 03:55N 35°53' E 014°46'0 0.0
2017-Aug-30 03:28N 35°53' E 014°46'0 0.0
2017-Aug-30 02:58N 35°53' E 014°46'0 0.0
2017-Aug-30 02:28N 35°53' E 014°46'1 1.1
2017-Aug-30 02:00N 35°53' E 014°47'4 8.8
2017-Aug-30 01:30N 35°53' E 014°52'612.7
2017-Aug-30 01:00N 35°57' E 014°58'611.9
2017-Aug-30 00:30N 35°60' E 015°05'612.7
2017-Aug-30 00:00N 36°01' E 015°13'612.2
2017-Aug-29 23:30N 35°57' E 015°19'612.4
2017-Aug-29 23:00N 35°54' E 015°26'612.1
2017-Aug-29 22:30N 35°58' E 015°32'612.3
2017-Aug-29 22:00N 36°01' E 015°38'611.6
2017-Aug-29 21:30N 36°00' E 015°45'711.8
2017-Aug-29 20:55N 35°58' E 015°53'3110.1
2017-Aug-29 17:51N 36°02' E 016°31'412.6
2017-Aug-29 17:30N 36°02' E 016°36'612.6
2017-Aug-29 17:00N 36°02' E 016°44'1712.6
2017-Aug-29 15:40N 36°03' E 017°05'1612.5
2017-Aug-29 14:22N 36°04' E 017°25'5612.6
2017-Aug-29 09:56N 36°08' E 018°34'13212.3
2017-Aug-28 23:14N 36°17' E 021°17'13910.5
2017-Aug-28 09:59N 37°30' E 023°45'612.8
2017-Aug-28 09:30N 37°36' E 023°44'612.6
2017-Aug-28 09:00N 37°42' E 023°41'612.7
2017-Aug-28 08:30N 37°48' E 023°38'612.0
2017-Aug-28 07:59N 37°54' E 023°37'4 8.9
2017-Aug-28 07:30N 37°57' E 023°34'5 9.7
2017-Aug-28 07:00N 38°02' E 023°32'1 1.0
2017-Aug-28 06:29N 38°02' E 023°32'0 0.0
2017-Aug-28 05:59N 38°02' E 023°32'0 0.0
2017-Aug-28 05:29N 38°02' E 023°32'0 0.0
2017-Aug-28 04:59N 38°02' E 023°32'0 0.0
2017-Aug-28 04:29N 38°02' E 023°32'0 0.0
2017-Aug-28 03:59N 38°02' E 023°32'0 0.0
2017-Aug-28 03:29N 38°03' E 023°32'0 0.0
2017-Aug-28 02:59N 38°02' E 023°32'0 0.0
2017-Aug-28 02:29N 38°02' E 023°32'0 0.0
2017-Aug-28 01:58N 38°02' E 023°32'0 0.0
2017-Aug-28 01:29N 38°02' E 023°32'0 0.0
2017-Aug-27 05:04N 38°02' E 023°32'0 0.0
2017-Aug-27 04:58N 38°02' E 023°32'0 0.0
2017-Aug-27 04:28N 38°02' E 023°32'0 0.0
2017-Aug-27 03:58N 38°02' E 023°32'0 0.0
2017-Aug-27 03:28N 38°02' E 023°32'0 0.0
2017-Aug-27 02:58N 38°02' E 023°32'0 0.0
2017-Aug-27 02:28N 38°02' E 023°32'0 0.0
2017-Aug-27 01:58N 38°02' E 023°32'0 0.0
2017-Aug-27 01:28N 38°02' E 023°32'0 0.0
2017-Aug-27 00:58N 38°02' E 023°32'0 0.0
2017-Aug-27 00:28N 38°02' E 023°32'0 0.0
2017-Aug-26 23:58N 38°02' E 023°32'0 0.0
2017-Aug-26 23:28N 38°02' E 023°32'0 0.0
2017-Aug-26 22:58N 38°02' E 023°32'0 0.0
2017-Aug-26 22:28N 38°02' E 023°32'0 0.0
2017-Aug-26 21:58N 38°02' E 023°32'0 0.0
2017-Aug-26 21:28N 38°02' E 023°32'0 0.0
2017-Aug-26 20:58N 38°02' E 023°32'0 0.0
2017-Aug-26 20:28N 38°02' E 023°32'0 0.0
2017-Aug-26 19:58N 38°02' E 023°32'0 0.0
2017-Aug-26 19:28N 38°02' E 023°32'0 0.0
2017-Aug-26 18:58N 38°03' E 023°32'0 0.0
2017-Aug-26 18:28N 38°02' E 023°32'0 0.0
2017-Aug-26 17:58N 38°02' E 023°32'0 0.0
2017-Aug-26 17:28N 38°02' E 023°32'0 0.0
2017-Aug-26 16:58N 38°02' E 023°32'0 0.0
2017-Aug-26 16:28N 38°02' E 023°32'0 0.0
2017-Aug-26 15:58N 38°02' E 023°32'0 0.0
2017-Aug-26 15:28N 38°02' E 023°32'0 0.0
2017-Aug-26 14:58N 38°02' E 023°32'0 0.0
2017-Aug-26 13:58N 38°02' E 023°32'0 0.0
2017-Aug-26 10:07N 38°02' E 023°32'0 0.0
2017-Aug-26 09:58N 38°02' E 023°32'0 0.0
2017-Aug-26 09:28N 38°02' E 023°32'0 0.0
2017-Aug-26 08:58N 38°02' E 023°32'0 0.0
2017-Aug-26 08:28N 38°02' E 023°32'0 0.0
2017-Aug-26 07:58N 38°02' E 023°32'0 0.0
2017-Aug-26 07:28N 38°02' E 023°32'0 0.0
2017-Aug-26 06:58N 38°02' E 023°32'0 0.0
2017-Aug-26 06:28N 38°02' E 023°32'0 0.0
2017-Aug-26 05:58N 38°02' E 023°32'0 0.0
2017-Aug-26 05:28N 38°02' E 023°32'0 0.0
2017-Aug-26 04:58N 38°02' E 023°32'0 0.0
2017-Aug-26 04:28N 38°02' E 023°32'0 0.0
2017-Aug-26 03:58N 38°02' E 023°32'0 0.0
2017-Aug-26 03:28N 38°02' E 023°32'0 0.0
2017-Aug-26 02:58N 38°02' E 023°32'0 0.0
2017-Aug-26 02:28N 38°02' E 023°32'0 0.0
2017-Aug-26 01:58N 38°02' E 023°32'0 0.0
2017-Aug-26 01:28N 38°02' E 023°32'0 0.0
2017-Aug-26 00:58N 38°02' E 023°32'0 0.0
2017-Aug-26 00:28N 38°02' E 023°32'0 0.0
2017-Aug-25 23:58N 38°02' E 023°32'0 0.0
2017-Aug-25 23:28N 38°02' E 023°32'0 0.0
2017-Aug-25 22:58N 38°02' E 023°32'0 0.0
2017-Aug-25 22:28N 38°02' E 023°32'0 0.0
2017-Aug-25 21:58N 38°02' E 023°32'0 0.0
2017-Aug-25 21:28N 38°02' E 023°32'0 0.0
2017-Aug-25 20:58N 38°02' E 023°32'0 0.0
2017-Aug-25 20:28N 38°02' E 023°32'0 0.0
2017-Aug-25 19:58N 38°02' E 023°32'0 0.0
2017-Aug-25 19:28N 38°02' E 023°32'0 0.0
2017-Aug-25 18:58N 38°02' E 023°32'0 0.0
2017-Aug-25 18:28N 38°02' E 023°32'  

Dump ship's entire track history